Time;durP1;ratioP1;P1;durP2;ratioP2;P2;SDS_P1;SDS_P2;PMS_P1;PMS_P2;Temp;Humidity;BMP_temperature;BMP_pressure;BME280_temperature;BME280_humidity;BME280_pressure;Samples;Min_cycle;Max_cycle;Signal;HPM_P1;HPM_P2
2024/04/15 00:02:22;;;;;;;3.80;2.50;;;10.00;89.20;;;;;;5259648;27;20526;-54
2024/04/15 00:04:48;;;;;;;3.70;1.47;;;10.00;89.80;;;;;;5260984;27;20290;-56
2024/04/15 00:07:13;;;;;;;3.90;2.03;;;9.90;90.90;;;;;;5253931;27;20250;-60
2024/04/15 00:09:39;;;;;;;4.63;2.27;;;9.90;91.10;;;;;;5269405;27;20271;-55
2024/04/15 00:12:04;;;;;;;7.00;2.00;;;9.90;91.20;;;;;;5247450;27;20352;-55
2024/04/15 00:14:30;;;;;;;4.30;1.60;;;9.80;91.20;;;;;;5268344;27;20338;-57
2024/04/15 00:16:56;;;;;;;5.30;2.53;;;9.80;91.50;;;;;;5269184;27;20568;-58
2024/04/15 00:19:26;;;;;;;10.23;2.03;;;9.80;91.60;;;;;;5252159;27;20290;-60
2024/04/15 00:21:51;;;;;;;7.10;1.80;;;9.70;91.70;;;;;;5246384;27;20271;-53
2024/04/15 00:24:17;;;;;;;3.73;1.77;;;9.70;92.00;;;;;;5249320;27;20461;-57
2024/04/15 00:26:44;;;;;;;5.50;1.77;;;9.70;92.30;;;;;;5268994;27;20244;-57
2024/04/15 00:29:10;;;;;;;3.87;1.80;;;9.60;92.40;;;;;;5256825;27;20319;-59
2024/04/15 00:31:36;;;;;;;7.93;2.17;;;9.60;92.70;;;;;;5250533;27;20526;-57
2024/04/15 00:34:01;;;;;;;6.43;2.80;;;9.50;93.00;;;;;;5257989;27;20281;-60
2024/04/15 00:36:27;;;;;;;4.87;1.93;;;9.50;93.00;;;;;;5252683;27;20592;-54
2024/04/15 00:38:52;;;;;;;8.83;1.90;;;9.60;93.20;;;;;;5257480;27;20229;-52
2024/04/15 00:41:18;;;;;;;2.27;1.60;;;9.50;93.40;;;;;;5244500;27;20291;-56
2024/04/15 00:43:43;;;;;;;3.07;1.67;;;9.50;93.50;;;;;;5227743;27;20237;-56
2024/04/15 00:46:09;;;;;;;2.60;1.60;;;9.40;94.20;;;;;;5258679;27;20225;-56
2024/04/15 00:48:36;;;;;;;5.57;1.70;;;9.50;94.40;;;;;;5267981;27;20228;-56
2024/04/15 00:51:02;;;;;;;6.10;2.07;;;9.50;94.00;;;;;;5267442;27;20583;-60
2024/04/15 00:53:28;;;;;;;6.43;2.70;;;9.40;94.00;;;;;;5269781;27;20855;-56
2024/04/15 00:55:56;;;;;;;4.60;1.50;;;9.40;94.30;;;;;;5272154;27;20588;-52
2024/04/15 00:58:23;;;;;;;7.00;2.30;;;9.30;94.60;;;;;;5244676;27;20232;-56
2024/04/15 01:00:50;;;;;;;8.23;1.93;;;9.40;94.60;;;;;;5267000;27;20469;-56
2024/04/15 01:03:16;;;;;;;8.77;2.37;;;9.40;94.60;;;;;;5266824;27;20508;-55
2024/04/15 01:05:42;;;;;;;3.57;1.80;;;9.40;94.80;;;;;;5273056;27;20458;-56
2024/04/15 01:08:08;;;;;;;5.10;1.60;;;9.40;95.00;;;;;;5265948;27;20240;-53
2024/04/15 01:10:34;;;;;;;3.93;1.80;;;9.40;94.90;;;;;;5256611;27;20468;-54
2024/04/15 01:13:00;;;;;;;4.00;2.03;;;9.40;94.90;;;;;;5241171;27;20520;-56
2024/04/15 01:15:25;;;;;;;3.90;1.40;;;9.50;94.90;;;;;;5262712;27;20255;-53
2024/04/15 01:17:51;;;;;;;7.30;2.07;;;9.50;95.20;;;;;;5270405;27;20704;-56
2024/04/15 01:20:16;;;;;;;5.80;2.10;;;9.40;95.10;;;;;;5252456;27;20286;-58
2024/04/15 01:22:55;;;;;;;6.63;1.97;;;9.40;95.10;;;;;;5269961;27;20237;-57
2024/04/15 01:25:21;;;;;;;4.60;2.17;;;9.40;95.20;;;;;;5272138;27;20274;-56
2024/04/15 01:27:46;;;;;;;3.70;1.30;;;9.40;94.70;;;;;;5274169;27;20998;-55
2024/04/15 01:30:12;;;;;;;4.30;1.57;;;9.50;94.30;;;;;;5274186;27;20456;-58
2024/04/15 01:32:38;;;;;;;9.50;3.13;;;9.50;94.20;;;;;;5274782;27;20750;-54
2024/04/15 01:35:03;;;;;;;2.53;1.40;;;9.40;93.90;;;;;;5274818;27;20345;-54
2024/04/15 01:37:29;;;;;;;4.43;1.60;;;9.50;93.80;;;;;;5270867;27;20561;-57
2024/04/15 01:39:55;;;;;;;5.63;2.03;;;9.40;93.80;;;;;;5261858;27;20259;-55
2024/04/15 01:42:20;;;;;;;7.03;1.80;;;9.40;93.80;;;;;;5273633;27;20296;-53
2024/04/15 01:44:46;;;;;;;10.40;1.63;;;9.40;93.70;;;;;;5271666;27;20817;-57
2024/04/15 01:47:11;;;;;;;4.47;1.70;;;9.40;93.80;;;;;;5249218;27;20228;-57
2024/04/15 01:49:37;;;;;;;6.20;2.23;;;9.40;93.80;;;;;;5252934;27;20332;-56
2024/04/15 01:52:03;;;;;;;3.73;1.60;;;9.40;93.80;;;;;;5257602;27;20228;-55
2024/04/15 01:54:28;;;;;;;3.80;1.40;;;9.40;93.90;;;;;;5262314;27;20372;-54
2024/04/15 01:56:54;;;;;;;3.00;1.67;;;9.50;93.30;;;;;;5253251;27;20238;-56
2024/04/15 01:59:19;;;;;;;9.23;1.70;;;9.40;93.00;;;;;;5253402;27;20255;-56
2024/04/15 02:01:45;;;;;;;3.60;1.30;;;9.40;92.80;;;;;;5261589;27;20265;-51
2024/04/15 02:04:10;;;;;;;4.47;1.63;;;9.40;92.60;;;;;;5261935;27;20258;-52
2024/04/15 02:06:36;;;;;;;6.70;1.23;;;9.40;92.20;;;;;;5253908;27;20285;-58
2024/04/15 02:09:02;;;;;;;4.40;3.00;;;9.40;91.80;;;;;;5272875;27;20316;-56
2024/04/15 02:11:27;;;;;;;2.87;1.33;;;9.40;91.40;;;;;;5246019;27;20265;-57
2024/04/15 02:13:53;;;;;;;7.33;2.13;;;9.40;92.00;;;;;;5254740;27;20240;-54
2024/04/15 02:16:18;;;;;;;4.13;1.83;;;9.40;91.90;;;;;;5252030;27;20284;-54
2024/04/15 02:18:44;;;;;;;5.50;1.40;;;9.40;91.80;;;;;;5261087;27;20278;-53
2024/04/15 02:21:09;;;;;;;4.83;1.90;;;9.40;91.80;;;;;;5269288;27;20240;-49
2024/04/15 02:23:35;;;;;;;11.23;2.80;;;9.40;91.40;;;;;;5271615;27;20231;-54
2024/04/15 02:26:00;;;;;;;6.93;2.10;;;9.40;91.60;;;;;;5256626;27;20734;-55
2024/04/15 02:28:26;;;;;;;4.93;2.07;;;9.30;91.60;;;;;;5265627;27;20454;-51
2024/04/15 02:30:51;;;;;;;6.53;2.00;;;9.40;91.50;;;;;;5269995;27;20331;-50
2024/04/15 02:33:17;;;;;;;4.30;2.40;;;9.40;91.20;;;;;;5252280;27;20248;-51
2024/04/15 02:35:43;;;;;;;7.93;2.33;;;9.40;91.20;;;;;;5251175;27;20232;-59
2024/04/15 02:38:08;;;;;;;2.10;1.40;;;9.40;91.40;;;;;;5259823;27;20232;-59
2024/04/15 02:40:34;;;;;;;5.17;2.30;;;9.40;91.80;;;;;;5266836;27;20232;-57
2024/04/15 02:43:00;;;;;;;4.90;2.23;;;9.40;91.80;;;;;;5271310;27;20244;-57
2024/04/15 02:45:26;;;;;;;4.07;2.00;;;9.30;92.50;;;;;;5269931;27;20460;-57
2024/04/15 02:47:52;;;;;;;7.30;2.20;;;9.40;92.60;;;;;;5272520;27;20866;-57
2024/04/15 02:50:17;;;;;;;4.73;2.23;;;9.30;92.60;;;;;;5273331;27;20688;-53
2024/04/15 02:52:43;;;;;;;6.20;2.40;;;9.30;92.80;;;;;;5271990;27;20224;-56
2024/04/15 02:55:08;;;;;;;4.43;1.60;;;9.30;92.90;;;;;;5272175;27;20323;-53
2024/04/15 02:57:34;;;;;;;26.97;3.70;;;9.20;92.90;;;;;;5273290;27;20263;-50
2024/04/15 02:59:59;;;;;;;4.70;1.97;;;9.20;93.00;;;;;;5252044;27;20287;-55
2024/04/15 03:02:25;;;;;;;2.73;1.73;;;9.20;92.80;;;;;;5257751;27;20597;-54
2024/04/15 03:04:51;;;;;;;5.80;1.70;;;9.20;92.50;;;;;;5253719;27;20236;-53
2024/04/15 03:07:16;;;;;;;5.13;2.00;;;9.30;92.40;;;;;;5271232;27;20280;-51
2024/04/15 03:09:42;;;;;;;4.93;2.40;;;9.30;92.50;;;;;;5272984;27;20414;-53
2024/04/15 03:12:08;;;;;;;6.87;1.73;;;9.30;92.60;;;;;;5272939;27;20340;-53
2024/04/15 03:14:33;;;;;;;5.53;1.90;;;9.40;92.80;;;;;;5270558;27;20710;-56
2024/04/15 03:16:59;;;;;;;3.10;1.63;;;9.40;93.10;;;;;;5272440;27;20282;-57
2024/04/15 03:19:24;;;;;;;5.40;1.20;;;9.30;92.50;;;;;;5265191;27;20289;-54
2024/04/15 03:21:50;;;;;;;3.47;1.53;;;9.30;92.80;;;;;;5262787;27;20609;-52
2024/04/15 03:24:15;;;;;;;3.23;1.60;;;9.40;92.70;;;;;;5262774;27;20340;-54
2024/04/15 03:26:41;;;;;;;5.70;1.57;;;9.30;92.60;;;;;;5260758;27;20232;-53
2024/04/15 03:29:06;;;;;;;3.67;1.90;;;9.30;92.90;;;;;;5265286;27;20339;-52
2024/04/15 03:31:32;;;;;;;6.30;1.70;;;9.30;92.80;;;;;;5264469;27;20241;-58
2024/04/15 03:33:57;;;;;;;6.50;2.50;;;9.30;92.90;;;;;;5259216;27;20272;-56
2024/04/15 03:36:23;;;;;;;2.80;1.60;;;9.30;92.60;;;;;;5259042;27;20313;-51
2024/04/15 03:38:49;;;;;;;3.40;1.40;;;9.40;93.90;;;;;;5256698;27;20232;-57
2024/04/15 03:41:14;;;;;;;4.87;1.70;;;9.40;94.10;;;;;;5256746;27;20572;-53
2024/04/15 03:43:40;;;;;;;7.03;1.73;;;9.30;94.10;;;;;;5261814;27;20227;-56
2024/04/15 03:46:06;;;;;;;8.77;2.20;;;9.30;94.80;;;;;;5257094;27;20331;-55
2024/04/15 03:48:31;;;;;;;2.60;1.57;;;9.20;95.00;;;;;;5248455;27;20239;-56
2024/04/15 03:50:57;;;;;;;6.37;2.00;;;9.20;94.90;;;;;;5245339;27;20271;-55
2024/04/15 03:53:23;;;;;;;4.73;1.50;;;9.20;94.90;;;;;;5256003;27;20216;-53
2024/04/15 03:55:55;;;;;;;4.10;1.63;;;9.20;94.70;;;;;;5249839;27;20281;-56
2024/04/15 03:58:20;;;;;;;1.90;1.07;;;9.20;95.40;;;;;;5255925;27;20395;-54
2024/04/15 04:00:49;;;;;;;6.17;1.73;;;9.20;95.20;;;;;;5265858;27;20529;-57
2024/04/15 04:03:15;;;;;;;5.57;1.93;;;9.10;94.50;;;;;;5252493;27;20844;-56
2024/04/15 04:05:41;;;;;;;3.80;1.40;;;9.10;94.50;;;;;;5267226;27;20455;-55
2024/04/15 04:08:06;;;;;;;4.90;1.77;;;9.10;94.00;;;;;;5257657;27;20339;-57
2024/04/15 04:10:32;;;;;;;3.40;1.23;;;9.10;93.80;;;;;;5240763;27;20480;-54
2024/04/15 04:12:57;;;;;;;2.97;1.73;;;9.10;93.90;;;;;;5259752;27;20285;-50
2024/04/15 04:15:23;;;;;;;4.10;1.40;;;9.10;94.00;;;;;;5268143;27;20283;-54
2024/04/15 04:17:49;;;;;;;6.07;1.60;;;9.10;93.40;;;;;;5271025;27;20331;-57
2024/04/15 04:20:14;;;;;;;5.23;1.80;;;9.10;93.50;;;;;;5271500;27;20276;-56
2024/04/15 04:22:40;;;;;;;1.73;1.30;;;9.10;93.30;;;;;;5271822;27;20242;-52
2024/04/15 04:25:06;;;;;;;3.63;1.60;;;9.00;94.50;;;;;;5271863;27;20287;-55
2024/04/15 04:27:31;;;;;;;2.70;1.70;;;8.80;95.60;;;;;;5272045;27;20631;-53
2024/04/15 04:29:57;;;;;;;3.43;1.57;;;8.80;96.10;;;;;;5252018;27;20846;-56
2024/04/15 04:32:22;;;;;;;5.50;1.77;;;8.80;96.40;;;;;;5261458;27;20236;-55
2024/04/15 04:34:48;;;;;;;3.30;1.40;;;8.80;96.50;;;;;;5274264;27;20222;-52
2024/04/15 04:37:14;;;;;;;6.13;1.80;;;8.80;96.60;;;;;;5257653;27;20244;-53
2024/04/15 04:39:39;;;;;;;3.37;1.43;;;8.80;96.60;;;;;;5261376;27;20233;-55
2024/04/15 04:42:05;;;;;;;10.10;1.80;;;8.80;96.50;;;;;;5257921;27;20898;-55
2024/04/15 04:44:31;;;;;;;3.77;2.13;;;8.80;96.50;;;;;;5259725;27;20333;-56
2024/04/15 04:46:56;;;;;;;2.13;1.27;;;8.70;96.70;;;;;;5271452;27;20252;-57
2024/04/15 04:49:22;;;;;;;4.23;1.70;;;8.70;96.70;;;;;;5246168;27;20229;-55
2024/04/15 04:51:47;;;;;;;3.50;1.83;;;8.70;96.80;;;;;;5258798;27;20276;-54
2024/04/15 04:54:16;;;;;;;5.27;2.57;;;8.80;96.80;;;;;;5239588;27;20260;-60
2024/04/15 04:56:42;;;;;;;7.20;2.30;;;8.80;96.60;;;;;;5258055;27;20235;-52
2024/04/15 04:59:07;;;;;;;6.50;2.07;;;8.80;96.50;;;;;;5260716;27;21026;-57
2024/04/15 05:01:33;;;;;;;7.67;1.83;;;8.80;96.40;;;;;;5256347;27;20747;-56
2024/04/15 05:03:58;;;;;;;3.70;2.07;;;8.80;96.40;;;;;;5262948;27;20232;-57
2024/04/15 05:06:24;;;;;;;7.20;2.00;;;8.90;96.50;;;;;;5272586;27;20269;-57
2024/04/15 05:08:50;;;;;;;7.30;2.20;;;8.90;96.30;;;;;;5266656;27;20230;-56
2024/04/15 05:11:16;;;;;;;5.47;1.73;;;8.90;96.30;;;;;;5267762;27;20572;-57
2024/04/15 05:13:42;;;;;;;4.77;1.60;;;8.90;96.30;;;;;;5267146;27;20234;-56
2024/04/15 05:16:12;;;;;;;6.07;1.97;;;9.00;96.60;;;;;;5267906;27;20539;-51
2024/04/15 05:18:39;;;;;;;6.90;2.13;;;9.00;96.20;;;;;;5251777;27;20303;-55
2024/04/15 05:21:10;;;;;;;8.73;1.90;;;9.00;96.00;;;;;;5261155;27;20546;-53
2024/04/15 05:23:36;;;;;;;4.63;2.00;;;9.10;96.20;;;;;;5265448;27;20467;-57
2024/04/15 05:26:02;;;;;;;4.33;2.37;;;9.30;96.90;;;;;;5244997;27;21041;-57
2024/04/15 05:28:27;;;;;;;3.23;1.50;;;9.30;96.80;;;;;;5249253;27;20268;-53
2024/04/15 05:30:55;;;;;;;6.60;2.23;;;9.60;96.10;;;;;;5259834;27;20334;-54
2024/04/15 05:33:22;;;;;;;3.37;1.63;;;9.60;95.80;;;;;;5257006;27;20229;-51
2024/04/15 05:35:48;;;;;;;4.80;2.00;;;9.80;95.80;;;;;;5257997;27;21018;-51
2024/04/15 05:38:14;;;;;;;4.60;1.93;;;9.90;95.40;;;;;;5289217;26;20595;-55
2024/04/15 05:40:40;;;;;;;5.93;2.00;;;10.00;94.40;;;;;;5247417;27;20521;-57
2024/04/15 05:43:10;;;;;;;7.33;2.20;;;9.80;95.00;;;;;;5272613;27;20452;-51
2024/04/15 05:45:36;;;;;;;10.80;2.50;;;9.80;95.90;;;;;;5271657;27;20252;-55
2024/04/15 05:48:03;;;;;;;3.00;1.73;;;9.60;95.40;;;;;;5269081;27;20544;-54
2024/04/15 05:50:29;;;;;;;4.30;1.80;;;9.30;95.60;;;;;;5270594;27;20577;-55
2024/04/15 05:52:55;;;;;;;2.70;1.53;;;9.30;96.10;;;;;;5271125;27;20459;-55
2024/04/15 05:55:21;;;;;;;13.17;2.50;;;9.30;96.30;;;;;;5274086;27;20290;-58
2024/04/15 05:57:46;;;;;;;7.20;2.30;;;9.40;96.70;;;;;;5274368;27;20622;-56
2024/04/15 06:00:13;;;;;;;4.67;2.20;;;9.60;97.30;;;;;;5274359;27;20263;-55
2024/04/15 06:02:39;;;;;;;9.73;2.63;;;9.70;96.80;;;;;;5274293;27;20229;-58
2024/04/15 06:05:05;;;;;;;5.40;2.00;;;10.00;96.20;;;;;;5245032;27;20697;-58
2024/04/15 06:07:31;;;;;;;8.53;2.10;;;10.50;94.90;;;;;;5249901;27;20249;-60
2024/04/15 06:09:56;;;;;;;3.10;2.00;;;10.40;94.80;;;;;;5264314;27;20521;-53
2024/04/15 06:12:22;;;;;;;5.63;1.57;;;10.30;93.60;;;;;;5255130;27;20237;-55
2024/04/15 06:14:48;;;;;;;10.07;2.20;;;10.20;93.00;;;;;;5249818;27;20259;-57
2024/04/15 06:17:14;;;;;;;4.23;2.20;;;10.60;92.50;;;;;;5271669;27;20232;-57
2024/04/15 06:19:40;;;;;;;13.63;2.50;;;10.90;93.70;;;;;;5270041;27;20460;-56
2024/04/15 06:22:06;;;;;;;7.90;2.40;;;11.10;92.40;;;;;;5272267;27;20271;-52
2024/04/15 06:24:32;;;;;;;5.10;1.97;;;11.30;91.20;;;;;;5273595;27;20456;-55
2024/04/15 06:26:58;;;;;;;4.50;1.80;;;11.60;87.40;;;;;;5273859;27;20232;-55
2024/04/15 06:29:24;;;;;;;4.50;1.50;;;11.80;85.50;;;;;;5274131;27;20273;-60
2024/04/15 06:31:50;;;;;;;9.33;2.40;;;11.70;83.10;;;;;;5273678;27;20935;-60
2024/04/15 06:34:19;;;;;;;9.00;1.67;;;11.40;85.90;;;;;;5250462;27;20533;-64
2024/04/15 06:36:46;;;;;;;12.80;1.90;;;11.70;85.30;;;;;;5259306;27;20594;-65
2024/04/15 06:39:11;;;;;;;11.47;2.73;;;11.50;86.00;;;;;;5262186;27;20555;-62
2024/04/15 06:41:37;;;;;;;6.70;2.63;;;11.50;87.30;;;;;;5262623;27;20501;-56
2024/04/15 06:44:02;;;;;;;6.30;1.97;;;11.70;87.10;;;;;;5260152;27;20682;-55
2024/04/15 06:46:29;;;;;;;5.60;1.80;;;11.60;89.10;;;;;;5258754;27;20280;-52
2024/04/15 06:48:55;;;;;;;6.80;2.13;;;11.90;87.50;;;;;;5265699;27;20237;-61
2024/04/15 06:51:21;;;;;;;6.80;1.90;;;12.30;82.70;;;;;;5258399;27;20466;-57
2024/04/15 06:53:47;;;;;;;5.97;2.03;;;12.70;85.40;;;;;;5269823;27;20238;-52
2024/04/15 06:56:13;;;;;;;6.23;1.77;;;13.30;82.80;;;;;;5269178;27;20515;-56
2024/04/15 06:58:38;;;;;;;5.80;1.73;;;13.10;77.50;;;;;;5248968;27;20698;-57
2024/04/15 07:01:04;;;;;;;7.73;1.53;;;13.80;82.70;;;;;;5268190;27;20244;-58
2024/04/15 07:03:30;;;;;;;6.13;2.40;;;14.20;73.40;;;;;;5272297;27;20740;-56
2024/04/15 07:05:55;;;;;;;7.70;2.30;;;14.70;74.00;;;;;;5273111;27;20750;-56
2024/04/15 07:08:21;;;;;;;6.33;2.50;;;14.80;73.40;;;;;;5271115;27;20332;-56
2024/04/15 07:10:46;;;;;;;5.47;1.80;;;14.90;78.10;;;;;;5272728;27;20278;-58
2024/04/15 07:13:12;;;;;;;5.33;1.63;;;14.90;72.00;;;;;;5273410;27;20274;-58
2024/04/15 07:15:38;;;;;;;6.13;1.70;;;15.70;70.00;;;;;;5255866;27;20720;-56
2024/04/15 07:18:03;;;;;;;4.23;1.57;;;15.70;64.00;;;;;;5257948;27;20308;-55
2024/04/15 07:20:29;;;;;;;5.57;1.50;;;15.60;63.00;;;;;;5264195;27;20268;-59
2024/04/15 07:22:55;;;;;;;4.10;1.77;;;14.90;64.90;;;;;;5262851;27;20229;-55
2024/04/15 07:25:21;;;;;;;5.10;2.07;;;14.70;71.30;;;;;;5269287;27;20511;-53
2024/04/15 07:27:48;;;;;;;4.10;2.00;;;14.40;70.30;;;;;;5271720;27;20852;-55
2024/04/15 07:30:13;;;;;;;11.67;3.00;;;14.10;75.60;;;;;;5272626;27;20569;-56
2024/04/15 07:32:39;;;;;;;6.93;2.53;;;14.00;74.80;;;;;;5271217;27;20579;-56
2024/04/15 07:35:05;;;;;;;5.80;1.90;;;13.90;74.40;;;;;;5272801;27;20242;-57
2024/04/15 07:37:30;;;;;;;4.73;2.20;;;14.30;75.40;;;;;;5273329;27;20235;-58
2024/04/15 07:39:56;;;;;;;6.13;1.97;;;13.90;76.80;;;;;;5244484;27;20492;-56
2024/04/15 07:42:22;;;;;;;5.40;2.33;;;13.90;76.30;;;;;;5253520;27;20241;-51
2024/04/15 07:44:48;;;;;;;4.00;1.63;;;14.20;80.90;;;;;;5255447;27;20233;-60
2024/04/15 07:47:14;;;;;;;4.17;1.87;;;14.40;78.70;;;;;;5255172;27;20294;-55
2024/04/15 07:49:40;;;;;;;5.30;1.80;;;14.20;76.10;;;;;;5264867;27;20485;-54
2024/04/15 07:52:06;;;;;;;7.23;2.53;;;13.70;79.00;;;;;;5267674;27;20435;-54
2024/04/15 07:54:32;;;;;;;4.67;2.07;;;14.30;80.70;;;;;;5272905;27;21008;-57
2024/04/15 07:56:57;;;;;;;5.93;2.47;;;14.00;82.80;;;;;;5271956;27;20224;-56
2024/04/15 07:59:23;;;;;;;3.23;2.03;;;14.00;82.90;;;;;;5272853;27;20559;-57
2024/04/15 08:01:49;;;;;;;5.80;2.33;;;14.10;85.50;;;;;;5272822;27;20263;-56
2024/04/15 08:04:15;;;;;;;7.40;2.50;;;14.20;85.40;;;;;;5269368;27;20230;-55
2024/04/15 08:06:41;;;;;;;4.27;2.40;;;15.00;85.70;;;;;;5259518;27;20618;-52
2024/04/15 08:09:07;;;;;;;5.37;2.60;;;14.90;80.90;;;;;;5248303;27;20238;-55
2024/04/15 08:11:33;;;;;;;2.73;1.97;;;14.70;85.10;;;;;;5249271;27;20712;-58
2024/04/15 08:13:58;;;;;;;7.33;2.20;;;14.80;84.30;;;;;;5256117;27;20234;-55
2024/04/15 08:16:24;;;;;;;3.07;1.97;;;15.00;80.70;;;;;;5268616;27;20488;-52
2024/04/15 08:18:50;;;;;;;4.57;2.00;;;15.00;79.50;;;;;;5264217;27;20231;-56
2024/04/15 08:21:16;;;;;;;3.60;1.73;;;14.70;82.60;;;;;;5244078;27;20243;-58
2024/04/15 08:23:41;;;;;;;7.33;2.20;;;14.40;86.10;;;;;;5255787;27;20244;-58
2024/04/15 08:26:07;;;;;;;7.20;2.43;;;14.50;90.10;;;;;;5247871;27;20770;-56
2024/04/15 08:28:33;;;;;;;6.67;2.77;;;14.30;86.50;;;;;;5271373;27;20232;-56
2024/04/15 08:30:58;;;;;;;7.00;2.40;;;14.20;89.20;;;;;;5252546;27;20286;-59
2024/04/15 08:33:24;;;;;;;3.70;2.57;;;14.10;91.10;;;;;;5251415;27;20270;-59
2024/04/15 08:35:50;;;;;;;5.40;2.70;;;14.40;90.70;;;;;;5254076;27;20235;-59
2024/04/15 08:38:16;;;;;;;4.30;2.50;;;14.60;91.50;;;;;;5257610;27;20229;-56
2024/04/15 08:40:51;;;;;;;6.67;2.30;;;14.70;90.90;;;;;;5263146;27;20231;-55
2024/04/15 08:43:21;;;;;;;3.70;2.40;;;14.20;90.90;;;;;;5257406;27;20473;-53
2024/04/15 08:45:53;;;;;;;5.37;2.93;;;14.10;92.60;;;;;;5243628;27;20518;-56
2024/04/15 08:48:23;;;;;;;5.03;2.13;;;14.20;92.50;;;;;;5243749;27;20590;-57
2024/04/15 08:50:49;;;;;;;8.30;2.90;;;14.50;92.40;;;;;;5252722;27;20863;-59
2024/04/15 08:53:15;;;;;;;4.50;2.60;;;14.30;91.80;;;;;;5265155;27;20459;-54
2024/04/15 08:55:41;;;;;;;3.63;3.00;;;13.90;93.10;;;;;;5260279;27;20232;-53
2024/04/15 08:58:11;;;;;;;4.80;2.67;;;13.90;92.90;;;;;;5257651;27;20482;-58
2024/04/15 09:00:37;;;;;;;5.03;3.27;;;13.90;93.60;;;;;;5257415;27;20345;-56
2024/04/15 09:03:04;;;;;;;6.90;2.87;;;13.90;93.70;;;;;;5255867;27;20515;-56
2024/04/15 09:05:30;;;;;;;3.00;2.43;;;14.00;94.20;;;;;;5257226;27;20614;-53
2024/04/15 09:07:56;;;;;;;3.80;2.77;;;14.80;93.30;;;;;;5247266;27;20498;-54
2024/04/15 09:10:22;;;;;;;5.90;2.70;;;14.70;91.70;;;;;;5250392;27;20556;-59
2024/04/15 09:12:48;;;;;;;6.07;2.87;;;14.70;91.70;;;;;;5256485;27;20507;-60
2024/04/15 09:15:15;;;;;;;3.60;1.97;;;14.90;90.70;;;;;;5265987;27;20232;-60
2024/04/15 09:17:41;;;;;;;7.17;2.57;;;15.40;91.70;;;;;;5269119;27;20587;-56
2024/04/15 09:20:08;;;;;;;4.13;2.13;;;15.10;89.20;;;;;;5273669;27;20535;-57
2024/04/15 09:22:35;;;;;;;6.23;2.20;;;15.10;88.90;;;;;;5272176;27;20478;-55
2024/04/15 09:25:01;;;;;;;6.43;2.00;;;15.30;90.20;;;;;;5268998;27;20521;-59
2024/04/15 09:27:27;;;;;;;4.90;2.20;;;15.40;89.00;;;;;;5271918;27;20475;-57
2024/04/15 09:30:03;;;;;;;4.20;2.67;;;15.20;90.10;;;;;;5271623;27;20260;-56
2024/04/15 09:32:29;;;;;;;3.43;2.30;;;14.80;88.80;;;;;;5273002;27;20477;-59
2024/04/15 09:35:00;;;;;;;4.07;2.23;;;15.00;88.80;;;;;;5268083;27;20827;-58
2024/04/15 09:37:26;;;;;;;2.67;1.93;;;15.00;88.10;;;;;;5271448;27;20348;-58
2024/04/15 09:39:53;;;;;;;6.53;2.80;;;14.90;90.70;;;;;;5271212;27;20465;-56
2024/04/15 09:42:19;;;;;;;5.00;2.40;;;14.60;90.10;;;;;;5270904;27;20471;-55
2024/04/15 09:44:49;;;;;;;5.37;3.10;;;14.30;90.30;;;;;;5270375;27;20522;-57
2024/04/15 09:47:15;;;;;;;3.10;2.33;;;14.20;90.50;;;;;;5269351;27;20493;-57
2024/04/15 09:49:41;;;;;;;4.83;2.30;;;14.40;92.80;;;;;;5273711;27;20474;-53
2024/04/15 09:52:11;;;;;;;3.30;1.60;;;15.20;89.60;;;;;;5270609;27;20595;-56
2024/04/15 09:54:40;;;;;;;3.37;2.13;;;15.30;87.00;;;;;;5271175;27;20516;-52
2024/04/15 09:57:15;;;;;;;6.20;2.50;;;15.20;89.90;;;;;;5271116;27;20877;-65
2024/04/15 09:59:44;;;;;;;3.97;2.00;;;15.10;89.40;;;;;;5271170;27;20456;-54
2024/04/15 10:02:24;;;;;;;5.33;2.27;;;15.40;88.00;;;;;;5271171;27;20567;-57
2024/04/15 10:04:53;;;;;;;5.37;2.43;;;15.50;81.70;;;;;;5268703;27;20471;-54
2024/04/15 10:07:20;;;;;;;5.07;2.77;;;15.70;82.10;;;;;;5272581;27;20520;-49
2024/04/15 10:09:48;;;;;;;2.40;2.20;;;15.40;80.50;;;;;;5269965;27;20515;-56
2024/04/15 10:12:15;;;;;;;4.00;2.03;;;15.60;81.70;;;;;;5267241;27;20472;-56
2024/04/15 10:14:42;;;;;;;1.93;1.73;;;15.70;79.40;;;;;;5270180;27;20468;-59
2024/04/15 10:17:09;;;;;;;5.53;2.53;;;15.60;76.70;;;;;;5266769;27;20802;-55
2024/04/15 10:19:34;;;;;;;3.43;2.10;;;15.60;81.10;;;;;;5269770;27;20476;-56
2024/04/15 10:22:00;;;;;;;5.60;2.07;;;15.50;82.60;;;;;;5269720;27;20515;-59
2024/04/15 10:24:26;;;;;;;3.60;2.00;;;15.20;81.20;;;;;;5273476;27;20281;-56
2024/04/15 10:26:53;;;;;;;5.23;2.33;;;15.20;82.50;;;;;;5265914;27;20947;-51
2024/04/15 10:29:22;;;;;;;4.40;2.00;;;15.10;82.60;;;;;;5268456;27;20398;-61
2024/04/15 10:31:51;;;;;;;4.20;2.27;;;15.10;84.10;;;;;;5270043;27;20458;-59
2024/04/15 10:34:20;;;;;;;2.97;2.33;;;15.10;81.10;;;;;;5269280;27;20462;-57
2024/04/15 10:36:50;;;;;;;4.00;1.67;;;15.10;78.50;;;;;;5269241;27;20537;-55
2024/04/15 10:39:17;;;;;;;3.23;1.63;;;15.20;81.70;;;;;;5269616;27;20467;-59
2024/04/15 10:41:44;;;;;;;3.10;1.73;;;15.40;79.70;;;;;;5270073;27;20526;-55
2024/04/15 10:44:11;;;;;;;3.30;1.80;;;15.20;82.30;;;;;;5270078;27;20453;-51
2024/04/15 10:46:41;;;;;;;4.20;1.60;;;15.00;81.30;;;;;;5270045;27;20589;-54
2024/04/15 10:49:06;;;;;;;2.47;1.57;;;14.60;82.40;;;;;;5269424;27;20463;-53
2024/04/15 10:51:33;;;;;;;2.70;1.90;;;14.20;85.90;;;;;;5274028;27;20577;-50
2024/04/15 10:53:58;;;;;;;2.10;1.60;;;14.10;87.30;;;;;;5269306;27;20614;-61
2024/04/15 10:56:24;;;;;;;2.70;1.93;;;13.90;89.20;;;;;;5269215;27;20550;-56
2024/04/15 10:58:50;;;;;;;3.70;1.63;;;13.60;91.00;;;;;;5271098;27;20653;-56
2024/04/15 11:01:16;;;;;;;1.43;1.33;;;13.70;91.30;;;;;;5267430;27;20518;-56
2024/04/15 11:03:42;;;;;;;2.20;1.83;;;13.60;91.30;;;;;;5268966;27;20225;-52
2024/04/15 11:06:09;;;;;;;1.60;1.50;;;13.40;91.60;;;;;;5268076;27;20606;-56
2024/04/15 11:08:35;;;;;;;1.93;1.73;;;13.40;92.50;;;;;;5272735;27;20463;-57
2024/04/15 11:11:01;;;;;;;1.70;1.60;;;13.20;92.30;;;;;;5264415;27;20537;-58
2024/04/15 11:13:27;;;;;;;3.20;1.97;;;13.50;93.40;;;;;;5270080;27;20463;-52
2024/04/15 11:15:54;;;;;;;2.50;2.10;;;13.60;93.40;;;;;;5269231;27;20228;-57
2024/04/15 11:18:20;;;;;;;2.83;1.63;;;13.60;93.10;;;;;;5268371;27;20687;-58
2024/04/15 11:20:46;;;;;;;2.17;1.97;;;13.60;93.30;;;;;;5267557;27;20970;-66
2024/04/15 11:23:12;;;;;;;2.00;1.90;;;13.50;93.60;;;;;;5265724;27;20568;-54
2024/04/15 11:25:39;;;;;;;2.63;2.17;;;13.40;93.70;;;;;;5268707;27;20579;-60
2024/04/15 11:28:06;;;;;;;3.27;1.80;;;13.30;94.70;;;;;;5268152;27;20523;-57
2024/04/15 11:30:32;;;;;;;4.70;2.20;;;13.40;94.50;;;;;;5267529;27;20905;-56
2024/04/15 11:32:58;;;;;;;1.80;1.70;;;13.20;93.90;;;;;;5268641;27;20559;-57
2024/04/15 11:35:24;;;;;;;13.60;2.53;;;13.00;93.80;;;;;;5268285;27;20276;-57
2024/04/15 11:38:03;;;;;;;2.70;1.60;;;13.10;93.20;;;;;;5267243;27;20292;-59
2024/04/15 11:40:30;;;;;;;1.40;1.30;;;13.10;92.30;;;;;;5268157;27;20841;-57
2024/04/15 11:42:59;;;;;;;15.90;1.90;;;13.00;92.80;;;;;;5264589;27;20523;-57
2024/04/15 11:45:25;;;;;;;1.70;1.53;;;12.90;96.70;;;;;;5267836;27;20452;-65
2024/04/15 11:47:54;;;;;;;2.13;1.83;;;13.00;99.90;;;;;;5266813;27;20556;-55
2024/04/15 11:50:20;;;;;;;4.00;1.80;;;13.00;99.90;;;;;;5268932;27;20233;-58
2024/04/15 11:52:46;;;;;;;3.77;2.00;;;12.80;99.90;;;;;;5259729;27;20859;-57
2024/04/15 11:55:18;;;;;;;3.13;2.13;;;12.90;99.90;;;;;;5260853;27;20516;-54
2024/04/15 11:57:44;;;;;;;8.70;2.30;;;12.80;99.90;;;;;;5261091;27;20492;-55
2024/04/15 12:00:11;;;;;;;3.20;2.03;;;12.90;99.90;;;;;;5264890;27;20464;-53
2024/04/15 12:02:38;;;;;;;5.10;2.10;;;12.80;99.90;;;;;;5261922;27;20457;-51
2024/04/15 12:05:06;;;;;;;2.93;2.27;;;13.30;99.90;;;;;;5252850;27;20475;-58
2024/04/15 12:07:32;;;;;;;4.20;3.80;;;13.90;99.80;;;;;;5266353;27;20699;-54
2024/04/15 12:09:58;;;;;;;2.20;1.87;;;14.30;98.40;;;;;;5255860;27;20869;-53
2024/04/15 12:12:23;;;;;;;2.87;2.20;;;14.80;97.90;;;;;;5239523;27;20497;-59
2024/04/15 12:14:49;;;;;;;2.53;2.33;;;15.20;96.80;;;;;;5237239;27;20662;-55
2024/04/15 12:17:15;;;;;;;3.00;2.80;;;15.40;94.90;;;;;;5241443;27;20352;-54
2024/04/15 12:19:40;;;;;;;5.63;2.90;;;14.30;95.20;;;;;;5249602;27;20432;-60
2024/04/15 12:22:06;;;;;;;5.73;3.70;;;14.30;96.50;;;;;;5263021;27;20281;-50
2024/04/15 12:24:32;;;;;;;3.47;3.17;;;14.10;96.50;;;;;;5252143;27;20272;-55
2024/04/15 12:26:57;;;;;;;2.97;2.73;;;14.10;96.70;;;;;;5264926;27;20284;-56
2024/04/15 12:29:24;;;;;;;5.73;3.00;;;14.10;97.20;;;;;;5271847;27;20225;-56
2024/04/15 12:31:50;;;;;;;4.90;3.07;;;14.10;97.00;;;;;;5272434;27;20573;-53
2024/04/15 12:34:19;;;;;;;3.10;2.90;;;14.20;97.00;;;;;;5271407;27;20575;-53
2024/04/15 12:36:44;;;;;;;4.63;3.00;;;14.30;97.10;;;;;;5272092;27;20257;-53
2024/04/15 12:39:10;;;;;;;2.53;2.27;;;14.20;97.70;;;;;;5271081;27;20481;-55
2024/04/15 12:41:36;;;;;;;4.83;2.40;;;14.30;96.50;;;;;;5272028;27;20237;-56
2024/04/15 12:44:05;;;;;;;2.73;2.40;;;14.40;96.10;;;;;;5242609;27;20230;-55
2024/04/15 12:46:30;;;;;;;3.20;3.00;;;14.60;96.70;;;;;;5269580;27;20851;-52